Time;durP1;ratioP1;P1;durP2;ratioP2;P2;SDS_P1;SDS_P2;PMS_P1;PMS_P2;Temp;Humidity;BMP_temperature;BMP_pressure;BME280_temperature;BME280_humidity;BME280_pressure;Samples;Min_cycle;Max_cycle;Signal;HPM_P1;HPM_P2
2022/03/11 00:01:29;;;;;;;8.43;5.10;;;;;;;;;;4977009;28;20337;-49
2022/03/11 00:03:56;;;;;;;8.07;5.00;;;;;;;;;;4982195;28;20037;-49
2022/03/11 00:06:22;;;;;;;8.77;5.60;;;;;;;;;;4997703;28;20018;-49
2022/03/11 00:08:47;;;;;;;10.13;5.72;;;;;;;;;;4988319;28;20018;-49
2022/03/11 00:11:12;;;;;;;8.48;5.30;;;;;;;;;;4979835;28;20026;-49
2022/03/11 00:13:38;;;;;;;8.20;5.18;;;;;;;;;;4979793;28;20265;-49
2022/03/11 00:16:03;;;;;;;9.48;5.65;;;;;;;;;;4979500;28;20026;-49
2022/03/11 00:18:29;;;;;;;8.93;5.20;;;;;;;;;;4979799;28;20027;-49
2022/03/11 00:20:54;;;;;;;9.53;5.90;;;;;;;;;;4980140;28;20042;-48
2022/03/11 00:23:19;;;;;;;8.82;5.47;;;;;;;;;;4994688;28;20711;-49
2022/03/11 00:25:44;;;;;;;9.90;5.47;;;;;;;;;;4999738;28;20508;-50
2022/03/11 00:28:10;;;;;;;9.18;5.72;;;;;;;;;;4994733;28;20017;-49
2022/03/11 00:30:35;;;;;;;8.68;5.32;;;;;;;;;;4980299;28;20485;-48
2022/03/11 00:33:01;;;;;;;9.07;5.70;;;;;;;;;;4980508;28;20022;-49
2022/03/11 00:35:26;;;;;;;10.43;5.57;;;;;;;;;;4980812;28;20281;-49
2022/03/11 00:37:52;;;;;;;8.30;5.70;;;;;;;;;;4980535;28;20442;-51
2022/03/11 00:40:17;;;;;;;10.23;5.90;;;;;;;;;;4980431;28;20656;-49
2022/03/11 00:42:42;;;;;;;9.03;6.00;;;;;;;;;;4981033;28;20315;-51
2022/03/11 00:45:08;;;;;;;9.93;5.93;;;;;;;;;;4980495;28;20348;-49
2022/03/11 00:47:33;;;;;;;9.45;5.47;;;;;;;;;;4980569;28;20498;-49
2022/03/11 00:49:58;;;;;;;9.80;5.40;;;;;;;;;;4980709;28;20097;-49
2022/03/11 00:52:23;;;;;;;8.27;5.30;;;;;;;;;;4980048;28;20296;-49
2022/03/11 00:54:49;;;;;;;10.80;5.90;;;;;;;;;;4980567;28;20270;-48
2022/03/11 00:57:16;;;;;;;8.20;5.10;;;;;;;;;;4980644;28;20266;-49
2022/03/11 00:59:41;;;;;;;8.77;5.50;;;;;;;;;;4979863;28;20261;-49
2022/03/11 01:02:07;;;;;;;9.90;5.72;;;;;;;;;;5011915;28;20512;-49
2022/03/11 01:04:32;;;;;;;9.37;5.17;;;;;;;;;;4980564;28;20049;-49
2022/03/11 01:06:57;;;;;;;9.53;5.47;;;;;;;;;;4980066;28;20348;-49
2022/03/11 01:09:22;;;;;;;10.33;6.30;;;;;;;;;;4980477;28;20313;-48
2022/03/11 01:11:48;;;;;;;9.83;5.50;;;;;;;;;;4980545;28;20313;-49
2022/03/11 01:14:13;;;;;;;9.38;5.60;;;;;;;;;;4980723;28;20296;-50
2022/03/11 01:16:38;;;;;;;10.17;5.67;;;;;;;;;;4980437;28;20045;-50
2022/03/11 01:19:04;;;;;;;10.17;5.33;;;;;;;;;;4980817;28;20277;-49
2022/03/11 01:21:29;;;;;;;8.68;5.18;;;;;;;;;;4979449;28;20049;-48
2022/03/11 01:23:54;;;;;;;9.13;5.07;;;;;;;;;;4980209;28;20502;-49
2022/03/11 01:26:19;;;;;;;9.35;5.22;;;;;;;;;;4980400;28;20563;-49
2022/03/11 01:28:45;;;;;;;8.88;5.20;;;;;;;;;;4979131;28;20026;-50
2022/03/11 01:31:13;;;;;;;9.40;5.60;;;;;;;;;;4993111;28;20140;-49
2022/03/11 01:33:39;;;;;;;9.88;5.47;;;;;;;;;;4999874;28;20142;-49
2022/03/11 01:36:05;;;;;;;10.13;5.25;;;;;;;;;;4999754;28;20626;-49
2022/03/11 01:38:30;;;;;;;9.88;6.15;;;;;;;;;;4999414;28;20022;-50
2022/03/11 01:40:56;;;;;;;9.80;5.63;;;;;;;;;;4987198;28;20710;-49
2022/03/11 01:43:21;;;;;;;8.00;5.37;;;;;;;;;;4982752;28;20272;-48
2022/03/11 01:45:46;;;;;;;8.65;5.10;;;;;;;;;;4983127;28;20359;-48
2022/03/11 01:48:11;;;;;;;8.53;5.07;;;;;;;;;;4983779;28;20097;-49
2022/03/11 01:50:40;;;;;;;8.05;5.03;;;;;;;;;;4983864;28;20411;-49
2022/03/11 01:53:08;;;;;;;7.00;4.78;;;;;;;;;;4982789;28;20051;-49
2022/03/11 01:55:34;;;;;;;8.02;4.82;;;;;;;;;;4983687;28;20026;-49
2022/03/11 01:57:59;;;;;;;7.50;4.60;;;;;;;;;;4983441;28;20025;-48
2022/03/11 02:00:24;;;;;;;8.33;5.20;;;;;;;;;;4983383;28;20026;-50
2022/03/11 02:02:50;;;;;;;8.13;4.72;;;;;;;;;;4983146;28;20033;-49
2022/03/11 02:05:17;;;;;;;7.87;4.93;;;;;;;;;;4983296;28;20021;-49
2022/03/11 02:07:43;;;;;;;7.85;4.72;;;;;;;;;;4981566;28;20045;-49
2022/03/11 02:10:08;;;;;;;8.95;5.00;;;;;;;;;;4982686;28;20710;-49
2022/03/11 02:12:35;;;;;;;7.95;4.63;;;;;;;;;;4983735;28;20395;-50
2022/03/11 02:15:00;;;;;;;7.30;4.72;;;;;;;;;;4983087;28;20502;-49
2022/03/11 02:17:25;;;;;;;7.75;4.43;;;;;;;;;;4983059;28;20025;-49
2022/03/11 02:19:51;;;;;;;8.60;4.53;;;;;;;;;;4982899;28;20038;-49
2022/03/11 02:22:16;;;;;;;7.35;4.50;;;;;;;;;;4982434;28;20676;-49
2022/03/11 02:24:41;;;;;;;8.25;5.03;;;;;;;;;;4982859;28;20026;-49
2022/03/11 02:27:06;;;;;;;7.90;5.10;;;;;;;;;;4982891;28;20225;-49
2022/03/11 02:29:32;;;;;;;8.68;4.97;;;;;;;;;;4982944;28;20431;-49
2022/03/11 02:31:57;;;;;;;8.63;4.70;;;;;;;;;;4983016;28;20109;-49
2022/03/11 02:34:22;;;;;;;8.53;4.90;;;;;;;;;;4982868;28;20053;-49
2022/03/11 02:36:47;;;;;;;8.47;4.70;;;;;;;;;;4981927;28;20373;-49
2022/03/11 02:39:13;;;;;;;8.32;4.68;;;;;;;;;;4982930;28;20304;-49
2022/03/11 02:41:41;;;;;;;7.50;4.57;;;;;;;;;;4982560;28;20529;-49
2022/03/11 02:44:06;;;;;;;8.75;4.90;;;;;;;;;;4983040;28;20269;-50
2022/03/11 02:46:32;;;;;;;8.17;4.43;;;;;;;;;;4982267;28;20524;-50
2022/03/11 02:48:57;;;;;;;8.18;4.72;;;;;;;;;;4982657;28;20652;-49
2022/03/11 02:51:22;;;;;;;8.17;5.10;;;;;;;;;;4982292;28;20054;-49
2022/03/11 02:53:47;;;;;;;9.10;5.20;;;;;;;;;;4981472;28;20367;-49
2022/03/11 02:56:13;;;;;;;10.03;4.90;;;;;;;;;;4982447;28;20304;-50
2022/03/11 02:58:38;;;;;;;7.22;4.90;;;;;;;;;;4982420;28;20823;-49
2022/03/11 03:01:04;;;;;;;8.10;5.07;;;;;;;;;;4982074;28;20049;-49
2022/03/11 03:03:29;;;;;;;8.38;5.05;;;;;;;;;;4982028;28;20019;-49
2022/03/11 03:05:54;;;;;;;8.27;4.83;;;;;;;;;;4981989;28;20022;-49
2022/03/11 03:08:19;;;;;;;8.07;4.63;;;;;;;;;;4981660;28;20328;-49
2022/03/11 03:10:45;;;;;;;8.00;4.73;;;;;;;;;;4982112;28;20257;-48
2022/03/11 03:13:12;;;;;;;8.03;4.80;;;;;;;;;;4981999;28;20607;-49
2022/03/11 03:15:37;;;;;;;8.75;4.88;;;;;;;;;;4981831;28;20265;-48
2022/03/11 03:18:03;;;;;;;8.53;4.60;;;;;;;;;;4982114;28;20125;-49
2022/03/11 03:20:28;;;;;;;8.23;4.68;;;;;;;;;;4982053;28;20364;-49
2022/03/11 03:22:53;;;;;;;7.97;4.83;;;;;;;;;;4981820;28;20038;-49
2022/03/11 03:25:18;;;;;;;9.20;4.70;;;;;;;;;;4981521;28;20801;-49
2022/03/11 03:27:43;;;;;;;7.85;5.07;;;;;;;;;;4981876;28;21289;-49
2022/03/11 03:30:09;;;;;;;7.32;4.53;;;;;;;;;;4981595;28;20034;-49
2022/03/11 03:32:34;;;;;;;7.57;4.45;;;;;;;;;;4981923;28;20546;-49
2022/03/11 03:34:59;;;;;;;8.37;5.00;;;;;;;;;;4981595;28;20037;-50
2022/03/11 03:37:25;;;;;;;8.30;4.80;;;;;;;;;;4981017;28;20277;-49
2022/03/11 03:39:50;;;;;;;7.07;4.68;;;;;;;;;;4981263;28;20050;-50
2022/03/11 03:42:15;;;;;;;7.07;4.15;;;;;;;;;;4981641;28;20042;-49
2022/03/11 03:44:40;;;;;;;7.27;4.57;;;;;;;;;;4982005;28;20720;-50
2022/03/11 03:47:06;;;;;;;8.37;4.90;;;;;;;;;;4981445;28;21150;-49
2022/03/11 03:49:31;;;;;;;8.80;4.72;;;;;;;;;;4981204;28;20677;-50
2022/03/11 03:51:57;;;;;;;8.60;4.90;;;;;;;;;;4981000;28;20148;-52
2022/03/11 03:54:22;;;;;;;8.23;4.77;;;;;;;;;;4981525;28;20547;-50
2022/03/11 03:56:47;;;;;;;7.45;4.28;;;;;;;;;;4981248;28;20316;-49
2022/03/11 03:59:13;;;;;;;7.93;4.72;;;;;;;;;;4980244;28;20034;-49
2022/03/11 04:01:38;;;;;;;7.53;4.32;;;;;;;;;;4980938;28;20133;-50
2022/03/11 04:04:04;;;;;;;6.70;4.03;;;;;;;;;;4981221;28;20022;-49
2022/03/11 04:06:30;;;;;;;8.60;5.13;;;;;;;;;;4979662;28;20994;-50
2022/03/11 04:08:56;;;;;;;8.88;4.88;;;;;;;;;;4979940;28;20033;-49
2022/03/11 04:11:22;;;;;;;6.40;4.20;;;;;;;;;;4981376;28;20078;-49
2022/03/11 04:13:47;;;;;;;7.60;4.60;;;;;;;;;;4980887;28;20088;-49
2022/03/11 04:16:13;;;;;;;7.63;4.23;;;;;;;;;;4980804;28;20034;-50
2022/03/11 04:18:38;;;;;;;7.18;4.40;;;;;;;;;;4980847;28;20427;-49
2022/03/11 04:21:03;;;;;;;8.67;4.70;;;;;;;;;;4980918;28;20423;-49
2022/03/11 04:23:28;;;;;;;8.30;4.37;;;;;;;;;;4980916;28;20406;-50
2022/03/11 04:25:53;;;;;;;6.70;3.90;;;;;;;;;;4981247;28;20331;-49
2022/03/11 04:28:19;;;;;;;8.63;4.60;;;;;;;;;;4981145;28;20030;-49
2022/03/11 04:30:44;;;;;;;7.47;4.17;;;;;;;;;;4981175;28;20268;-49
2022/03/11 04:33:09;;;;;;;7.03;4.13;;;;;;;;;;4981141;28;20113;-49
2022/03/11 04:35:35;;;;;;;9.10;4.33;;;;;;;;;;4980547;28;20349;-50
2022/03/11 04:38:00;;;;;;;7.75;4.22;;;;;;;;;;4979969;28;20356;-50
2022/03/11 04:40:26;;;;;;;8.15;3.70;;;;;;;;;;4980431;28;20030;-51
2022/03/11 04:42:51;;;;;;;8.85;4.50;;;;;;;;;;4990402;28;20030;-49
2022/03/11 04:45:16;;;;;;;7.77;4.17;;;;;;;;;;4999850;28;20631;-49
2022/03/11 04:47:42;;;;;;;6.47;4.10;;;;;;;;;;4998690;28;20281;-50
2022/03/11 04:50:07;;;;;;;6.43;3.97;;;;;;;;;;4976022;28;20262;-50
2022/03/11 04:52:33;;;;;;;6.53;4.03;;;;;;;;;;4967361;28;20524;-51
2022/03/11 04:54:59;;;;;;;5.15;3.42;;;;;;;;;;4979493;28;20030;-50
2022/03/11 04:57:24;;;;;;;7.97;3.90;;;;;;;;;;4979571;28;20037;-50
2022/03/11 04:59:49;;;;;;;6.33;3.90;;;;;;;;;;4969568;28;20266;-50
2022/03/11 05:02:22;;;;;;;7.50;3.80;;;;;;;;;;4973875;28;20299;-50
2022/03/11 05:04:48;;;;;;;6.65;3.30;;;;;;;;;;4964534;28;20831;-50
2022/03/11 05:07:13;;;;;;;6.40;3.87;;;;;;;;;;4974212;28;20062;-50
2022/03/11 05:09:38;;;;;;;7.43;3.90;;;;;;;;;;4976919;28;20265;-50
2022/03/11 05:12:04;;;;;;;5.88;3.33;;;;;;;;;;4979482;28;20034;-49
2022/03/11 05:14:29;;;;;;;6.57;3.58;;;;;;;;;;4980109;28;20026;-50
2022/03/11 05:16:54;;;;;;;8.73;4.03;;;;;;;;;;4980022;28;20026;-50
2022/03/11 05:19:21;;;;;;;6.00;3.58;;;;;;;;;;4984651;28;20073;-52
2022/03/11 05:21:46;;;;;;;7.43;3.50;;;;;;;;;;4975961;28;20563;-51
2022/03/11 05:24:11;;;;;;;6.50;3.87;;;;;;;;;;4983369;28;20054;-50
2022/03/11 05:26:37;;;;;;;6.77;4.03;;;;;;;;;;4984569;28;20053;-51
2022/03/11 05:29:02;;;;;;;6.80;4.03;;;;;;;;;;4984519;28;20331;-52
2022/03/11 05:31:28;;;;;;;5.70;3.47;;;;;;;;;;4993923;28;20030;-50
2022/03/11 05:33:54;;;;;;;6.72;3.70;;;;;;;;;;4994334;28;20034;-49
2022/03/11 05:36:19;;;;;;;7.30;3.60;;;;;;;;;;4993916;28;20117;-50
2022/03/11 05:38:46;;;;;;;6.45;3.92;;;;;;;;;;4990955;28;20018;-50
2022/03/11 05:41:12;;;;;;;6.00;3.45;;;;;;;;;;4986919;28;20154;-51
2022/03/11 05:43:38;;;;;;;5.80;3.58;;;;;;;;;;4987625;28;20018;-51
2022/03/11 05:46:03;;;;;;;5.82;3.97;;;;;;;;;;4986116;28;20030;-51
2022/03/11 05:48:28;;;;;;;7.20;3.90;;;;;;;;;;4985504;28;20030;-51
2022/03/11 05:50:59;;;;;;;6.23;4.10;;;;;;;;;;4983583;28;20425;-49
2022/03/11 05:53:26;;;;;;;5.68;3.42;;;;;;;;;;4982699;28;20544;-49
2022/03/11 05:55:52;;;;;;;5.57;3.30;;;;;;;;;;4982515;28;20037;-50
2022/03/11 05:58:17;;;;;;;5.40;3.50;;;;;;;;;;4982850;28;20031;-49
2022/03/11 06:00:43;;;;;;;6.07;3.57;;;;;;;;;;4981174;28;20309;-50
2022/03/11 06:03:16;;;;;;;5.85;3.60;;;;;;;;;;4982008;28;20361;-50
2022/03/11 06:05:48;;;;;;;6.30;3.58;;;;;;;;;;4958641;28;20042;-49
2022/03/11 06:08:13;;;;;;;5.35;3.45;;;;;;;;;;4960735;28;20054;-50
2022/03/11 06:10:38;;;;;;;6.22;4.40;;;;;;;;;;4962722;28;20474;-49
2022/03/11 06:13:04;;;;;;;5.82;3.53;;;;;;;;;;4962440;28;20556;-50
2022/03/11 06:15:29;;;;;;;8.48;3.75;;;;;;;;;;4961509;28;20605;-54
2022/03/11 06:17:54;;;;;;;6.47;3.38;;;;;;;;;;4962392;28;20023;-50
2022/03/11 06:20:21;;;;;;;6.93;3.77;;;;;;;;;;4961540;28;20122;-51
2022/03/11 06:22:47;;;;;;;5.95;3.70;;;;;;;;;;4962498;28;20325;-52
2022/03/11 06:25:13;;;;;;;5.72;3.50;;;;;;;;;;4963085;28;20358;-51
2022/03/11 06:27:38;;;;;;;5.30;3.57;;;;;;;;;;4963384;28;20492;-50
2022/03/11 06:30:04;;;;;;;6.03;3.50;;;;;;;;;;4961542;28;20270;-47
2022/03/11 06:32:29;;;;;;;5.80;3.70;;;;;;;;;;4962662;28;20505;-50
2022/03/11 06:34:54;;;;;;;6.13;3.15;;;;;;;;;;4963065;28;20069;-50
2022/03/11 06:37:19;;;;;;;5.50;2.95;;;;;;;;;;4962559;28;20034;-52
2022/03/11 06:39:45;;;;;;;4.83;3.10;;;;;;;;;;4963031;28;20430;-52
2022/03/11 06:42:10;;;;;;;5.97;3.30;;;;;;;;;;4962951;28;20306;-50
2022/03/11 06:44:35;;;;;;;4.97;3.10;;;;;;;;;;4963581;28;20035;-51
2022/03/11 06:47:01;;;;;;;4.70;3.20;;;;;;;;;;4963283;28;20029;-52
2022/03/11 06:49:26;;;;;;;5.03;2.90;;;;;;;;;;4962516;28;20278;-50
2022/03/11 06:51:51;;;;;;;4.80;3.37;;;;;;;;;;4961898;28;20282;-50
2022/03/11 06:54:16;;;;;;;5.13;3.17;;;;;;;;;;4961655;28;20057;-51
2022/03/11 06:56:42;;;;;;;4.85;2.90;;;;;;;;;;4963213;28;20041;-50
2022/03/11 06:59:07;;;;;;;5.13;3.03;;;;;;;;;;4963299;28;20630;-50
2022/03/11 07:01:32;;;;;;;5.85;3.40;;;;;;;;;;4962861;28;20089;-49
2022/03/11 07:03:57;;;;;;;5.70;3.92;;;;;;;;;;4962929;28;20026;-49
2022/03/11 07:06:23;;;;;;;5.40;3.10;;;;;;;;;;4962203;28;20030;-50
2022/03/11 07:08:48;;;;;;;4.97;2.93;;;;;;;;;;4952227;28;20085;-51
2022/03/11 07:11:13;;;;;;;5.33;3.30;;;;;;;;;;4953688;28;20377;-50
2022/03/11 07:13:38;;;;;;;4.60;3.20;;;;;;;;;;4954107;28;20098;-49
2022/03/11 07:16:04;;;;;;;6.03;3.13;;;;;;;;;;4947282;28;21095;-50
2022/03/11 07:18:29;;;;;;;4.72;3.05;;;;;;;;;;4946476;28;20431;-49
2022/03/11 07:20:55;;;;;;;5.37;3.37;;;;;;;;;;4951466;28;20533;-49
2022/03/11 07:23:20;;;;;;;3.83;2.77;;;;;;;;;;4950610;28;20263;-49
2022/03/11 07:25:45;;;;;;;7.45;3.50;;;;;;;;;;4945276;28;20358;-49
2022/03/11 07:28:14;;;;;;;5.57;2.70;;;;;;;;;;4945416;28;20471;-49
2022/03/11 07:30:39;;;;;;;4.85;3.08;;;;;;;;;;4947015;28;20087;-49
2022/03/11 07:33:06;;;;;;;5.80;3.40;;;;;;;;;;4944839;28;20031;-51
2022/03/11 07:35:31;;;;;;;4.95;3.03;;;;;;;;;;4944552;28;20031;-50
2022/03/11 07:37:56;;;;;;;5.23;3.10;;;;;;;;;;4946669;28;20143;-50
2022/03/11 07:40:22;;;;;;;4.47;2.90;;;;;;;;;;4962307;28;20394;-51
2022/03/11 07:42:47;;;;;;;4.05;2.70;;;;;;;;;;4954294;28;20442;-50
2022/03/11 07:45:13;;;;;;;4.63;2.97;;;;;;;;;;4942829;28;20487;-51
2022/03/11 07:47:38;;;;;;;6.00;3.22;;;;;;;;;;4952942;28;20270;-51
2022/03/11 07:50:04;;;;;;;5.45;2.95;;;;;;;;;;4954387;28;20057;-50
2022/03/11 07:52:29;;;;;;;4.53;2.65;;;;;;;;;;4953119;28;20166;-52
2022/03/11 07:54:55;;;;;;;3.90;2.80;;;;;;;;;;4953547;28;20110;-51
2022/03/11 07:57:20;;;;;;;4.78;3.05;;;;;;;;;;4954416;28;20278;-50
2022/03/11 07:59:45;;;;;;;4.40;2.97;;;;;;;;;;4960725;28;20053;-50
2022/03/11 08:02:11;;;;;;;5.35;3.05;;;;;;;;;;4952082;28;20118;-50
2022/03/11 08:04:36;;;;;;;4.50;3.00;;;;;;;;;;4950461;28;20085;-51
2022/03/11 08:07:06;;;;;;;6.85;3.05;;;;;;;;;;4953074;28;20309;-51
2022/03/11 08:09:31;;;;;;;;;;;;;;;;;;4951449;28;20022;-50
2022/03/11 08:11:56;;;;;;;6.80;3.22;;;;;;;;;;4952187;28;19914;-50
2022/03/11 08:14:22;;;;;;;4.70;2.77;;;;;;;;;;4956407;28;20026;-50
2022/03/11 08:16:47;;;;;;;4.57;2.73;;;;;;;;;;4953334;28;20270;-51
2022/03/11 08:19:12;;;;;;;4.97;3.33;;;;;;;;;;4951004;28;20782;-49
2022/03/11 08:21:37;;;;;;;4.40;3.05;;;;;;;;;;4945401;28;20043;-50
2022/03/11 08:24:03;;;;;;;4.57;2.83;;;;;;;;;;4947148;28;20018;-50
2022/03/11 08:26:28;;;;;;;4.78;2.95;;;;;;;;;;4945164;28;20034;-49
2022/03/11 08:28:53;;;;;;;5.50;3.40;;;;;;;;;;4945736;28;20027;-50
2022/03/11 08:31:19;;;;;;;6.00;3.30;;;;;;;;;;4945483;28;20019;-50
2022/03/11 08:33:44;;;;;;;4.90;3.00;;;;;;;;;;4943818;28;20551;-50
2022/03/11 08:36:10;;;;;;;4.38;3.03;;;;;;;;;;4945848;28;20361;-50
2022/03/11 08:38:35;;;;;;;5.30;3.35;;;;;;;;;;4940973;28;20758;-49
2022/03/11 08:41:02;;;;;;;6.55;3.30;;;;;;;;;;4944475;28;20782;-50
2022/03/11 08:43:27;;;;;;;6.10;3.47;;;;;;;;;;4941378;28;20114;-49
2022/03/11 08:45:53;;;;;;;6.05;3.50;;;;;;;;;;4944444;28;20115;-49
2022/03/11 08:48:18;;;;;;;6.60;3.90;;;;;;;;;;4949722;28;20030;-49
2022/03/11 08:50:43;;;;;;;7.20;4.07;;;;;;;;;;4944593;28;20171;-49
2022/03/11 08:53:09;;;;;;;6.10;4.00;;;;;;;;;;4954235;28;20062;-48
2022/03/11 08:55:35;;;;;;;5.90;3.90;;;;;;;;;;4947930;28;20263;-49
2022/03/11 08:58:00;;;;;;;6.32;3.90;;;;;;;;;;4960593;28;20091;-50
2022/03/11 09:00:25;;;;;;;8.32;4.40;;;;;;;;;;4944731;28;20027;-50
2022/03/11 09:02:51;;;;;;;7.70;4.90;;;;;;;;;;4945729;28;20028;-49
2022/03/11 09:05:18;;;;;;;6.85;4.35;;;;;;;;;;4945919;28;20271;-49
2022/03/11 09:07:44;;;;;;;6.95;4.63;;;;;;;;;;4945504;28;20547;-49
2022/03/11 09:10:09;;;;;;;7.88;4.55;;;;;;;;;;4948630;28;20043;-49
2022/03/11 09:12:35;;;;;;;7.97;4.93;;;;;;;;;;4945382;28;20023;-50
2022/03/11 09:15:00;;;;;;;8.57;4.70;;;;;;;;;;4945800;28;20027;-49
2022/03/11 09:17:25;;;;;;;8.03;4.60;;;;;;;;;;4945919;28;20031;-50
2022/03/11 09:19:51;;;;;;;8.57;4.53;;;;;;;;;;4948926;28;20029;-50
2022/03/11 09:22:17;;;;;;;7.90;4.97;;;;;;;;;;4945487;28;20322;-50
2022/03/11 09:24:44;;;;;;;6.93;4.70;;;;;;;;;;4945121;28;20019;-50
2022/03/11 09:27:09;;;;;;;7.57;4.78;;;;;;;;;;4945590;28;20314;-50
2022/03/11 09:29:34;;;;;;;9.80;5.05;;;;;;;;;;4947971;28;20051;-50
2022/03/11 09:32:00;;;;;;;8.00;4.55;;;;;;;;;;4949633;28;20023;-51
2022/03/11 09:34:25;;;;;;;8.73;4.70;;;;;;;;;;4957673;28;20042;-50
2022/03/11 09:36:52;;;;;;;8.55;5.35;;;;;;;;;;4954081;28;20033;-51
2022/03/11 09:39:17;;;;;;;8.68;5.28;;;;;;;;;;4957209;28;20135;-49
2022/03/11 09:41:43;;;;;;;8.55;4.90;;;;;;;;;;4966100;28;20121;-50
2022/03/11 09:44:08;;;;;;;8.70;5.40;;;;;;;;;;4947484;28;20023;-52
2022/03/11 09:46:33;;;;;;;7.40;4.93;;;;;;;;;;4965769;28;20305;-50
2022/03/11 09:48:59;;;;;;;7.85;4.63;;;;;;;;;;4965737;28;20278;-51
2022/03/11 09:51:24;;;;;;;8.03;5.00;;;;;;;;;;4956825;28;20038;-50
2022/03/11 09:53:49;;;;;;;10.53;5.57;;;;;;;;;;4961616;28;20675;-51
2022/03/11 09:56:14;;;;;;;7.00;4.40;;;;;;;;;;4962936;28;20593;-51
2022/03/11 09:58:39;;;;;;;10.60;4.30;;;;;;;;;;4963932;28;20282;-50
2022/03/11 10:01:06;;;;;;;8.50;4.60;;;;;;;;;;4962518;28;20031;-51
2022/03/11 10:03:31;;;;;;;8.80;5.05;;;;;;;;;;4963702;28;20262;-50
2022/03/11 10:05:56;;;;;;;8.10;4.90;;;;;;;;;;4959249;28;20049;-50
2022/03/11 10:08:31;;;;;;;9.10;5.20;;;;;;;;;;4955274;28;20035;-50
2022/03/11 10:11:16;;;;;;;10.25;5.78;;;;;;;;;;4954079;28;20367;-50
2022/03/11 10:13:41;;;;;;;9.32;5.82;;;;;;;;;;4963995;28;20037;-51
2022/03/11 10:16:16;;;;;;;8.37;5.20;;;;;;;;;;4962862;28;20023;-51
2022/03/11 10:18:41;;;;;;;10.32;6.32;;;;;;;;;;4963430;28;20481;-51
2022/03/11 10:21:07;;;;;;;11.73;6.03;;;;;;;;;;4957994;28;20110;-50
2022/03/11 10:23:32;;;;;;;9.18;6.00;;;;;;;;;;4953503;28;20038;-50
2022/03/11 10:25:58;;;;;;;11.00;6.83;;;;;;;;;;4946026;28;20023;-51
2022/03/11 10:28:23;;;;;;;9.85;5.80;;;;;;;;;;4944237;28;20046;-50
2022/03/11 10:30:49;;;;;;;10.63;6.47;;;;;;;;;;4955856;28;20019;-49
2022/03/11 10:33:14;;;;;;;10.50;5.85;;;;;;;;;;4955900;28;20274;-50
2022/03/11 10:35:45;;;;;;;10.77;6.22;;;;;;;;;;4963508;28;20056;-52
2022/03/11 10:38:12;;;;;;;11.60;6.10;;;;;;;;;;4950993;28;20523;-50
2022/03/11 10:40:41;;;;;;;10.32;6.13;;;;;;;;;;4976014;28;20026;-50
2022/03/11 10:43:13;;;;;;;10.90;6.20;;;;;;;;;;4962109;28;20045;-50
2022/03/11 10:45:45;;;;;;;8.43;6.22;;;;;;;;;;4963377;28;20093;-50
2022/03/11 10:48:11;;;;;;;11.55;6.28;;;;;;;;;;4963357;28;20118;-50
2022/03/11 10:50:36;;;;;;;9.57;6.20;;;;;;;;;;4963376;28;20113;-50
2022/03/11 10:53:05;;;;;;;10.98;6.78;;;;;;;;;;4963033;28;20065;-50
2022/03/11 10:55:30;;;;;;;9.00;6.18;;;;;;;;;;4962092;28;20501;-50
2022/03/11 10:57:56;;;;;;;11.00;6.57;;;;;;;;;;4961940;28;20030;-50
2022/03/11 11:00:23;;;;;;;11.02;6.45;;;;;;;;;;4962412;28;20019;-51
2022/03/11 11:02:48;;;;;;;11.57;6.63;;;;;;;;;;4961857;28;20031;-50
2022/03/11 11:05:14;;;;;;;11.50;6.40;;;;;;;;;;4962477;28;20138;-51
2022/03/11 11:07:40;;;;;;;10.18;6.35;;;;;;;;;;4961668;28;20041;-51
2022/03/11 11:10:06;;;;;;;10.77;6.32;;;;;;;;;;4959674;28;20026;-51
2022/03/11 11:12:31;;;;;;;11.00;6.00;;;;;;;;;;4962513;28;20049;-50
2022/03/11 11:14:56;;;;;;;10.32;6.72;;;;;;;;;;4960621;28;20529;-51
2022/03/11 11:17:21;;;;;;;12.13;6.73;;;;;;;;;;4961745;28;20050;-49
2022/03/11 11:19:47;;;;;;;11.50;6.80;;;;;;;;;;4960718;28;20062;-51
2022/03/11 11:22:12;;;;;;;10.70;6.30;;;;;;;;;;4962883;28;20035;-51
2022/03/11 11:24:37;;;;;;;12.00;8.20;;;;;;;;;;4967188;28;20030;-51
2022/03/11 11:27:03;;;;;;;12.23;6.60;;;;;;;;;;4973365;28;20038;-51
2022/03/11 11:29:36;;;;;;;13.25;7.22;;;;;;;;;;4970338;28;20023;-51
2022/03/11 11:32:02;;;;;;;10.55;6.57;;;;;;;;;;4968963;28;20029;-50
2022/03/11 11:34:30;;;;;;;13.13;6.82;;;;;;;;;;4965396;28;20029;-51
2022/03/11 11:36:57;;;;;;;9.60;5.95;;;;;;;;;;4966409;28;20019;-50
2022/03/11 11:39:26;;;;;;;11.30;6.95;;;;;;;;;;4965935;28;20033;-50
2022/03/11 11:41:53;;;;;;;11.00;6.57;;;;;;;;;;4965290;28;20122;-50
2022/03/11 11:44:18;;;;;;;11.10;6.72;;;;;;;;;;4962145;28;20038;-50
2022/03/11 11:47:04;;;;;;;11.25;6.70;;;;;;;;;;4960834;28;20019;-50
2022/03/11 11:50:01;;;;;;;10.75;6.75;;;;;;;;;;4961535;28;20169;-50
2022/03/11 11:52:28;;;;;;;10.25;6.40;;;;;;;;;;4947833;28;20043;-50
2022/03/11 11:55:15;;;;;;;10.85;6.35;;;;;;;;;;4958388;28;20236;-50
2022/03/11 11:57:42;;;;;;;10.45;6.15;;;;;;;;;;4960027;28;20044;-50
2022/03/11 12:00:09;;;;;;;10.55;6.85;;;;;;;;;;4952958;28;20039;-51
2022/03/11 12:02:34;;;;;;;11.07;5.38;;;;;;;;;;4953331;28;20039;-50
2022/03/11 12:05:00;;;;;;;9.98;5.93;;;;;;;;;;4941184;28;20023;-50
2022/03/11 12:07:43;;;;;;;8.95;5.05;;;;;;;;;;4943979;28;20031;-50
2022/03/11 12:10:22;;;;;;;8.75;5.82;;;;;;;;;;4942976;28;20038;-50
2022/03/11 12:12:48;;;;;;;10.52;6.05;;;;;;;;;;4948585;28;20031;-50
2022/03/11 12:15:14;;;;;;;10.05;6.15;;;;;;;;;;4942887;28;20050;-49
2022/03/11 12:17:43;;;;;;;9.82;6.13;;;;;;;;;;4957066;28;20059;-49
2022/03/11 12:20:27;;;;;;;8.38;5.55;;;;;;;;;;4955727;28;20027;-50
2022/03/11 12:23:03;;;;;;;10.68;6.50;;;;;;;;;;4950653;28;20505;-51
2022/03/11 12:25:29;;;;;;;11.13;6.47;;;;;;;;;;4961052;28;20728;-51
2022/03/11 12:28:03;;;;;;;10.20;6.20;;;;;;;;;;4960250;28;20518;-50
2022/03/11 12:30:29;;;;;;;11.02;6.50;;;;;;;;;;4961504;28;20034;-50
2022/03/11 12:32:55;;;;;;;11.88;7.05;;;;;;;;;;4954119;28;20114;-50
2022/03/11 12:35:20;;;;;;;9.67;6.00;;;;;;;;;;4941475;28;20031;-50
2022/03/11 12:37:46;;;;;;;10.35;5.95;;;;;;;;;;4950631;28;20681;-53
2022/03/11 12:40:11;;;;;;;9.60;6.30;;;;;;;;;;4959689;28;20471;-50
2022/03/11 12:42:39;;;;;;;11.77;5.88;;;;;;;;;;4954787;28;20740;-50
2022/03/11 12:45:06;;;;;;;10.07;6.28;;;;;;;;;;4961492;28;20018;-52
2022/03/11 12:47:35;;;;;;;10.07;5.78;;;;;;;;;;4951219;28;20027;-49
2022/03/11 12:50:01;;;;;;;11.57;6.37;;;;;;;;;;4942161;28;20023;-51
2022/03/11 12:52:26;;;;;;;11.27;6.13;;;;;;;;;;4955648;28;20086;-51
2022/03/11 12:54:52;;;;;;;9.10;5.72;;;;;;;;;;4942730;28;20031;-51
2022/03/11 12:57:17;;;;;;;9.35;5.72;;;;;;;;;;4952404;28;20035;-50
2022/03/11 12:59:44;;;;;;;9.93;6.15;;;;;;;;;;4961634;28;20133;-50
2022/03/11 13:02:10;;;;;;;9.27;5.75;;;;;;;;;;4960883;28;20185;-50
2022/03/11 13:04:42;;;;;;;9.85;6.28;;;;;;;;;;4961587;28;20538;-51
2022/03/11 13:07:07;;;;;;;9.25;5.40;;;;;;;;;;4949896;28;20023;-50
2022/03/11 13:09:32;;;;;;;9.40;5.72;;;;;;;;;;4955114;28;20027;-50
2022/03/11 13:12:18;;;;;;;8.77;5.55;;;;;;;;;;4961468;28;20030;-51
2022/03/11 13:14:43;;;;;;;9.45;5.95;;;;;;;;;;4960839;28;20109;-50
2022/03/11 13:17:08;;;;;;;9.33;5.43;;;;;;;;;;4961311;28;20062;-49
2022/03/11 13:19:33;;;;;;;10.73;5.70;;;;;;;;;;4947612;28;20106;-51
2022/03/11 13:21:58;;;;;;;7.87;4.80;;;;;;;;;;4958630;28;20085;-50
2022/03/11 13:24:24;;;;;;;9.63;5.63;;;;;;;;;;4960911;28;20073;-51
2022/03/11 13:26:49;;;;;;;9.20;5.47;;;;;;;;;;4961194;28;20092;-51
2022/03/11 13:29:14;;;;;;;10.00;6.37;;;;;;;;;;4961311;28;20023;-50
2022/03/11 13:31:40;;;;;;;12.43;6.95;;;;;;;;;;4948906;28;20263;-52
2022/03/11 13:34:07;;;;;;;12.03;7.20;;;;;;;;;;4942318;28;20030;-50
2022/03/11 13:36:32;;;;;;;12.63;7.00;;;;;;;;;;4946914;28;20289;-51
2022/03/11 13:39:06;;;;;;;11.30;7.03;;;;;;;;;;4962726;28;20015;-50
2022/03/11 13:41:40;;;;;;;13.25;6.93;;;;;;;;;;4965035;28;20302;-51
2022/03/11 13:44:11;;;;;;;12.43;7.00;;;;;;;;;;4964755;28;20070;-50
2022/03/11 13:46:37;;;;;;;11.88;7.50;;;;;;;;;;4964545;28;20029;-50
2022/03/11 13:49:05;;;;;;;11.45;7.10;;;;;;;;;;4964544;28;20023;-52
2022/03/11 13:51:40;;;;;;;11.73;7.13;;;;;;;;;;4964371;28;20042;-50
2022/03/11 13:54:05;;;;;;;12.52;7.22;;;;;;;;;;4962112;28;20059;-50
2022/03/11 13:56:37;;;;;;;11.37;7.10;;;;;;;;;;4963133;28;20034;-51
2022/03/11 13:59:06;;;;;;;14.32;8.07;;;;;;;;;;4946889;28;20354;-50
2022/03/11 14:01:36;;;;;;;12.77;7.43;;;;;;;;;;4958571;28;20130;-51
2022/03/11 14:04:01;;;;;;;;;;;;;;;;;;4955384;28;20031;-50
2022/03/11 14:06:30;;;;;;;12.98;8.02;;;;;;;;;;4947873;28;20017;-52
2022/03/11 14:08:55;;;;;;;13.40;7.38;;;;;;;;;;4951830;28;20494;-50
2022/03/11 14:11:21;;;;;;;12.80;7.53;;;;;;;;;;4957452;28;20035;-50
2022/03/11 14:13:46;;;;;;;15.82;8.10;;;;;;;;;;4964181;28;20266;-50
2022/03/11 14:16:11;;;;;;;12.88;7.13;;;;;;;;;;4963097;28;20030;-52
2022/03/11 14:18:37;;;;;;;12.60;8.10;;;;;;;;;;4952028;28;20027;-52
2022/03/11 14:21:02;;;;;;;13.18;7.95;;;;;;;;;;4947770;28;20035;-53
2022/03/11 14:23:28;;;;;;;13.32;8.05;;;;;;;;;;4946522;28;20027;-51
2022/03/11 14:25:53;;;;;;;14.67;7.93;;;;;;;;;;4949561;28;20027;-49
2022/03/11 14:28:18;;;;;;;12.98;8.05;;;;;;;;;;4949001;28;20301;-50
2022/03/11 14:30:44;;;;;;;14.75;8.38;;;;;;;;;;4949317;28;20046;-50
2022/03/11 14:33:09;;;;;;;13.50;8.27;;;;;;;;;;4948250;28;20039;-50
2022/03/11 14:35:34;;;;;;;14.27;8.40;;;;;;;;;;4945382;28;20487;-50